Time;durP1;ratioP1;P1;durP2;ratioP2;P2;SDS_P1;SDS_P2;PMS_P1;PMS_P2;Temp;Humidity;BMP_temperature;BMP_pressure;BME280_temperature;BME280_humidity;BME280_pressure;Samples;Min_cycle;Max_cycle;Signal;HPM_P1;HPM_P2
2022/08/31 00:07:54;;;;;;;3.58;1.65;;;18.80;99.90;;;;;;7313983;32;20183;-62
2022/08/31 00:11:56;;;;;;;6.07;1.60;;;18.70;99.90;;;;;;7319154;32;20173;-60
2022/08/31 00:15:58;;;;;;;2.45;1.73;;;18.70;99.90;;;;;;7320300;32;20174;-60
2022/08/31 00:20:00;;;;;;;3.15;1.83;;;18.70;99.90;;;;;;7311044;32;20587;-60
2022/08/31 00:24:02;;;;;;;4.57;1.98;;;18.50;99.90;;;;;;7311667;32;20203;-60
2022/08/31 00:28:05;;;;;;;4.03;1.70;;;18.40;99.90;;;;;;7298934;32;20190;-60
2022/08/31 00:32:06;;;;;;;4.50;1.80;;;18.40;99.90;;;;;;7310888;32;20368;-61
2022/08/31 00:36:11;;;;;;;4.60;1.92;;;18.30;99.90;;;;;;7313316;32;20174;-60
2022/08/31 00:40:13;;;;;;;4.12;1.73;;;18.30;99.90;;;;;;7313324;32;20116;-60
2022/08/31 00:44:16;;;;;;;3.12;1.55;;;18.10;99.90;;;;;;7311860;32;20441;-60
2022/08/31 00:48:17;;;;;;;4.30;1.83;;;18.00;99.90;;;;;;7307844;32;20315;-60
2022/08/31 00:52:23;;;;;;;4.97;1.70;;;18.00;99.90;;;;;;7298530;32;20107;-60
2022/08/31 00:56:26;;;;;;;5.20;1.80;;;17.90;99.90;;;;;;7312460;32;20111;-60
2022/08/31 01:00:29;;;;;;;2.72;1.92;;;17.90;99.90;;;;;;7310932;32;20210;-60
2022/08/31 01:04:32;;;;;;;4.18;1.65;;;17.80;99.90;;;;;;7311481;32;20294;-60
2022/08/31 01:08:33;;;;;;;5.28;1.70;;;17.70;99.90;;;;;;7300309;32;20123;-60
2022/08/31 01:12:35;;;;;;;3.97;1.58;;;17.70;99.90;;;;;;7318170;32;20115;-60
2022/08/31 01:16:42;;;;;;;3.95;1.48;;;17.60;99.90;;;;;;7301204;32;20143;-60
2022/08/31 01:21:19;;;;;;;2.33;1.57;;;17.50;99.90;;;;;;7311916;32;20513;-60
2022/08/31 01:25:22;;;;;;;8.00;1.60;;;17.50;99.90;;;;;;7313784;32;20291;-61
2022/08/31 01:29:23;;;;;;;2.05;1.12;;;17.50;99.90;;;;;;7300228;32;20191;-62
2022/08/31 01:33:25;;;;;;;3.80;1.50;;;17.40;99.90;;;;;;7314409;32;20204;-61
2022/08/31 01:37:28;;;;;;;3.47;1.50;;;17.50;99.90;;;;;;7318157;32;20138;-60
2022/08/31 01:41:31;;;;;;;2.30;1.20;;;17.40;99.90;;;;;;7315178;32;20143;-60
2022/08/31 01:45:33;;;;;;;3.42;1.20;;;17.30;99.90;;;;;;7312189;32;20213;-61
2022/08/31 01:49:34;;;;;;;3.42;1.23;;;17.30;99.90;;;;;;7301595;32;20123;-60
2022/08/31 01:53:36;;;;;;;4.60;1.20;;;17.30;99.90;;;;;;7315617;32;20133;-60
2022/08/31 01:57:39;;;;;;;5.70;1.40;;;17.20;99.90;;;;;;7316783;32;20124;-60
2022/08/31 02:01:44;;;;;;;3.97;1.30;;;17.20;99.90;;;;;;7319297;32;20179;-60
2022/08/31 02:05:46;;;;;;;3.10;1.33;;;17.10;99.90;;;;;;7316001;32;20100;-60
2022/08/31 02:09:48;;;;;;;3.75;1.17;;;17.10;99.90;;;;;;7319605;32;20131;-60
2022/08/31 02:13:52;;;;;;;2.15;1.10;;;17.10;99.90;;;;;;7316363;32;20116;-60
2022/08/31 02:17:54;;;;;;;3.10;1.55;;;17.00;99.90;;;;;;7300936;32;20138;-60
2022/08/31 02:21:56;;;;;;;1.60;1.10;;;17.00;99.90;;;;;;7323295;32;20162;-60
2022/08/31 02:25:57;;;;;;;7.55;1.33;;;17.00;99.90;;;;;;7306650;32;20180;-60
2022/08/31 02:29:59;;;;;;;2.30;1.17;;;17.00;99.90;;;;;;7311568;32;20181;-60
2022/08/31 02:34:02;;;;;;;3.37;1.20;;;17.10;99.90;;;;;;7312802;32;20189;-60
2022/08/31 02:38:05;;;;;;;5.97;1.20;;;17.10;99.90;;;;;;7315362;32;20232;-60
2022/08/31 02:42:07;;;;;;;2.75;1.12;;;17.00;99.90;;;;;;7319786;32;20237;-60
2022/08/31 02:46:09;;;;;;;2.60;1.30;;;17.10;99.90;;;;;;7314896;32;20372;-60
2022/08/31 02:50:10;;;;;;;2.15;1.25;;;17.10;99.90;;;;;;7319769;32;20622;-60
2022/08/31 02:54:12;;;;;;;1.73;0.70;;;17.10;99.90;;;;;;7315609;32;20799;-61
2022/08/31 02:58:15;;;;;;;1.67;0.90;;;17.10;99.90;;;;;;7315410;32;20119;-59
2022/08/31 03:02:24;;;;;;;2.55;1.00;;;17.00;99.90;;;;;;7320431;32;20600;-58
2022/08/31 03:06:33;;;;;;;1.77;1.10;;;17.10;99.90;;;;;;7319299;32;20213;-58
2022/08/31 03:10:34;;;;;;;1.90;0.85;;;17.00;99.90;;;;;;7318221;32;20486;-60
2022/08/31 03:14:36;;;;;;;1.80;1.10;;;17.00;99.90;;;;;;7315569;32;20253;-59
2022/08/31 03:18:38;;;;;;;4.20;1.05;;;16.90;99.90;;;;;;7318961;32;20513;-60
2022/08/31 03:22:40;;;;;;;2.25;0.90;;;16.90;99.90;;;;;;7319244;32;20263;-60
2022/08/31 03:26:46;;;;;;;2.42;1.17;;;16.90;99.90;;;;;;7322121;32;20166;-60
2022/08/31 03:30:48;;;;;;;2.28;1.00;;;16.80;99.90;;;;;;7316273;32;20515;-59
2022/08/31 03:34:58;;;;;;;1.75;1.08;;;16.70;99.90;;;;;;7317837;32;20237;-58
2022/08/31 03:39:00;;;;;;;4.30;1.12;;;16.70;99.90;;;;;;7322542;32;20540;-59
2022/08/31 03:43:02;;;;;;;2.55;0.90;;;16.70;99.90;;;;;;7320376;32;20663;-58
2022/08/31 03:47:03;;;;;;;1.75;0.90;;;16.60;99.90;;;;;;7319609;32;20265;-59
2022/08/31 03:51:06;;;;;;;3.67;1.10;;;16.60;99.90;;;;;;7307261;32;20130;-59
2022/08/31 03:55:09;;;;;;;1.75;1.02;;;16.50;99.90;;;;;;7321971;32;20182;-59
2022/08/31 03:59:12;;;;;;;3.72;1.10;;;16.50;99.90;;;;;;7321751;32;20116;-59
2022/08/31 04:03:14;;;;;;;1.27;1.00;;;16.40;99.90;;;;;;7314751;32;20575;-60
2022/08/31 04:07:17;;;;;;;2.08;1.12;;;16.40;99.90;;;;;;7313964;32;20192;-59
2022/08/31 04:11:19;;;;;;;3.47;1.12;;;16.40;99.90;;;;;;7319943;32;20212;-58
2022/08/31 04:15:41;;;;;;;2.33;1.02;;;16.30;99.90;;;;;;7319973;32;20194;-58
2022/08/31 04:19:42;;;;;;;2.03;1.00;;;16.20;99.90;;;;;;7318475;32;20116;-59
2022/08/31 04:23:45;;;;;;;2.40;1.12;;;16.20;99.90;;;;;;7323319;32;20206;-58
2022/08/31 04:27:49;;;;;;;2.30;1.00;;;16.10;99.90;;;;;;7318840;32;20161;-59
2022/08/31 04:31:51;;;;;;;4.20;1.10;;;16.10;99.90;;;;;;7313212;32;20219;-59
2022/08/31 04:35:53;;;;;;;1.35;0.90;;;16.00;99.90;;;;;;7314424;32;20123;-60
2022/08/31 04:39:56;;;;;;;2.30;1.20;;;16.00;99.90;;;;;;7303191;32;20111;-60
2022/08/31 04:44:01;;;;;;;1.65;1.10;;;15.90;99.90;;;;;;7318363;32;20168;-60
2022/08/31 04:48:03;;;;;;;2.72;1.08;;;15.90;99.90;;;;;;7299915;32;20168;-65
2022/08/31 04:52:07;;;;;;;2.03;1.10;;;15.80;99.90;;;;;;7314840;32;20467;-64
2022/08/31 04:56:17;;;;;;;3.22;1.20;;;15.80;99.90;;;;;;7317661;32;20716;-64
2022/08/31 05:00:20;;;;;;;2.10;1.40;;;15.80;99.90;;;;;;7300490;32;20277;-64
2022/08/31 05:04:27;;;;;;;3.37;1.10;;;15.80;99.90;;;;;;7312711;32;20216;-63
2022/08/31 05:08:29;;;;;;;2.25;1.20;;;15.80;99.90;;;;;;7314913;32;20161;-63
2022/08/31 05:12:31;;;;;;;3.20;1.08;;;15.70;99.90;;;;;;7312196;32;20658;-64
2022/08/31 05:16:41;;;;;;;4.97;1.00;;;15.70;99.90;;;;;;7314881;32;20180;-63
2022/08/31 05:20:43;;;;;;;8.75;6.20;;;15.70;99.90;;;;;;7315563;32;20138;-64
2022/08/31 05:24:46;;;;;;;4.35;1.27;;;15.70;99.90;;;;;;7311786;32;20200;-64
2022/08/31 05:28:48;;;;;;;4.60;1.50;;;15.70;99.90;;;;;;7311741;32;20147;-63
2022/08/31 05:32:50;;;;;;;4.05;2.20;;;15.70;99.90;;;;;;7321831;32;20197;-63
2022/08/31 05:36:55;;;;;;;4.40;1.30;;;15.80;99.90;;;;;;7313358;32;20116;-66
2022/08/31 05:41:00;;;;;;;2.80;1.25;;;15.80;99.90;;;;;;7305901;32;20173;-65
2022/08/31 05:45:02;;;;;;;2.58;1.15;;;15.80;99.90;;;;;;7320166;32;20138;-67
2022/08/31 05:49:05;;;;;;;6.43;1.60;;;15.80;99.90;;;;;;7311920;32;20171;-66
2022/08/31 05:53:08;;;;;;;3.97;1.40;;;15.90;99.90;;;;;;7314769;32;20185;-66
2022/08/31 05:57:10;;;;;;;4.45;1.30;;;15.90;99.90;;;;;;7320134;32;20166;-66
2022/08/31 06:01:33;;;;;;;3.47;1.20;;;16.00;99.90;;;;;;7312338;32;20181;-63
2022/08/31 06:05:35;;;;;;;3.60;1.40;;;16.00;99.90;;;;;;7312893;32;20505;-63
2022/08/31 06:09:37;;;;;;;3.42;1.33;;;16.10;99.90;;;;;;7315867;32;20131;-63
2022/08/31 06:13:41;;;;;;;3.15;1.20;;;16.10;99.90;;;;;;7320275;32;20206;-64
2022/08/31 06:17:43;;;;;;;2.33;1.20;;;16.10;99.90;;;;;;7308770;32;20255;-64
2022/08/31 06:21:48;;;;;;;2.05;1.10;;;16.10;99.90;;;;;;7313899;32;20107;-63
2022/08/31 06:25:59;;;;;;;1.62;1.35;;;16.10;99.90;;;;;;7314570;32;20214;-64
2022/08/31 06:30:03;;;;;;;6.93;1.33;;;16.10;99.90;;;;;;7301726;32;20132;-63
2022/08/31 06:34:08;;;;;;;3.42;1.30;;;16.20;99.90;;;;;;7318024;32;20162;-63
2022/08/31 06:38:09;;;;;;;5.35;1.23;;;16.20;99.90;;;;;;7310753;32;20195;-63
2022/08/31 06:42:11;;;;;;;2.15;1.37;;;16.30;99.90;;;;;;7318705;32;20179;-63
2022/08/31 06:46:15;;;;;;;2.95;1.10;;;16.40;99.90;;;;;;7316761;32;20107;-63
2022/08/31 06:50:40;;;;;;;3.97;1.40;;;16.50;99.90;;;;;;7293366;32;20126;-62
2022/08/31 06:54:42;;;;;;;3.10;1.48;;;16.60;99.90;;;;;;7297430;32;20272;-63
2022/08/31 06:58:44;;;;;;;3.95;1.75;;;16.70;99.90;;;;;;7294353;32;20177;-64
2022/08/31 07:02:49;;;;;;;3.30;1.70;;;16.90;99.90;;;;;;7315405;32;20242;-63
2022/08/31 07:07:16;;;;;;;3.53;1.60;;;17.00;99.90;;;;;;7418478;31;20098;-64
2022/08/31 07:11:22;;;;;;;4.20;1.40;;;17.20;99.90;;;;;;7390993;32;20166;-62
2022/08/31 07:15:23;;;;;;;6.75;1.50;;;17.30;99.90;;;;;;7376614;32;20404;-61
2022/08/31 07:19:25;;;;;;;6.37;1.70;;;17.40;99.90;;;;;;7377504;32;20272;-63
2022/08/31 07:23:27;;;;;;;4.80;1.42;;;17.40;99.90;;;;;;7377057;32;20171;-62
2022/08/31 07:27:29;;;;;;;4.35;1.90;;;17.40;99.90;;;;;;7380941;32;20255;-62
2022/08/31 07:31:43;;;;;;;4.07;1.50;;;17.50;99.90;;;;;;7385926;32;20225;-65
2022/08/31 07:35:45;;;;;;;4.28;1.60;;;17.50;99.90;;;;;;7387205;32;20222;-64
2022/08/31 07:44:10;;;;;;;5.90;2.28;;;17.70;99.90;;;;;;7385031;32;20103;-63
2022/08/31 07:48:12;;;;;;;8.55;1.58;;;17.60;99.90;;;;;;7377737;32;20125;-61
2022/08/31 07:52:15;;;;;;;6.82;1.70;;;17.70;99.90;;;;;;7382441;32;20168;-62
2022/08/31 07:56:18;;;;;;;7.18;1.50;;;17.80;99.90;;;;;;7383005;31;20233;-62
2022/08/31 08:00:34;;;;;;;2.70;1.80;;;17.80;99.90;;;;;;7379108;32;20559;-63
2022/08/31 08:04:42;;;;;;;7.83;2.00;;;17.90;99.90;;;;;;7382821;32;20129;-62
2022/08/31 08:08:45;;;;;;;3.72;1.70;;;18.00;99.90;;;;;;7378677;32;20124;-62
2022/08/31 08:13:07;;;;;;;3.40;1.87;;;18.10;99.90;;;;;;7375869;32;20740;-62
2022/08/31 08:17:09;;;;;;;5.25;1.90;;;18.20;99.90;;;;;;7370677;32;20237;-63
2022/08/31 08:21:12;;;;;;;8.05;1.75;;;18.30;99.90;;;;;;7358136;32;20313;-63
2022/08/31 08:25:14;;;;;;;2.78;1.30;;;18.40;99.90;;;;;;7358122;32;20130;-63
2022/08/31 08:29:18;;;;;;;3.60;1.50;;;18.60;99.90;;;;;;7364853;32;20217;-64
2022/08/31 08:33:20;;;;;;;5.53;1.90;;;18.70;99.90;;;;;;7368188;32;20293;-64
2022/08/31 08:37:22;;;;;;;7.15;1.60;;;18.70;99.90;;;;;;7361358;32;20099;-63
2022/08/31 08:41:46;;;;;;;2.97;1.50;;;18.90;99.90;;;;;;7356562;32;20103;-64
2022/08/31 08:45:51;;;;;;;7.03;1.80;;;19.20;99.90;;;;;;7356145;32;20237;-64
2022/08/31 08:49:55;;;;;;;4.87;1.60;;;19.50;99.90;;;;;;7360454;32;20114;-63
2022/08/31 08:54:03;;;;;;;4.68;1.70;;;19.60;99.90;;;;;;7377446;32;20112;-63
2022/08/31 08:58:09;;;;;;;3.70;1.60;;;19.70;99.90;;;;;;7365640;32;20214;-64
2022/08/31 09:02:21;;;;;;;8.48;1.90;;;19.70;99.90;;;;;;7362557;32;20115;-64
2022/08/31 09:06:53;;;;;;;3.75;1.60;;;19.80;99.90;;;;;;7359687;32;20131;-63
2022/08/31 09:11:16;;;;;;;8.30;1.80;;;19.90;99.90;;;;;;7361053;32;20246;-64
2022/08/31 09:15:36;;;;;;;8.20;1.90;;;20.00;99.90;;;;;;7361307;32;20126;-64
2022/08/31 09:24:11;;;;;;;4.75;1.90;;;21.00;99.90;;;;;;7360643;32;20264;-63
2022/08/31 09:28:15;;;;;;;2.55;1.87;;;21.50;99.90;;;;;;7363117;32;20219;-63
2022/08/31 09:32:22;;;;;;;5.12;1.75;;;21.40;99.90;;;;;;7362772;32;20122;-65
2022/08/31 09:36:39;;;;;;;5.18;1.70;;;21.80;99.90;;;;;;7353907;32;20129;-64
2022/08/31 09:40:47;;;;;;;4.20;1.90;;;22.30;99.90;;;;;;7360458;32;20179;-64
2022/08/31 09:44:49;;;;;;;10.07;2.00;;;23.10;99.90;;;;;;7361541;32;20133;-64
2022/08/31 09:48:57;;;;;;;3.20;1.58;;;24.00;99.90;;;;;;7359385;32;20107;-64
2022/08/31 09:57:57;;;;;;;6.20;1.87;;;24.60;99.90;;;;;;7358542;32;20171;-64
2022/08/31 10:02:01;;;;;;;7.85;1.98;;;25.00;99.90;;;;;;7352546;32;20717;-64
2022/08/31 10:06:38;;;;;;;2.92;1.52;;;24.70;99.90;;;;;;7361376;32;20120;-64
2022/08/31 10:10:42;;;;;;;4.72;1.80;;;25.20;99.90;;;;;;7359851;32;20944;-63
2022/08/31 10:14:53;;;;;;;6.12;1.65;;;25.30;99.90;;;;;;7353281;32;20112;-64
2022/08/31 10:19:05;;;;;;;7.22;1.50;;;25.80;99.90;;;;;;7363539;32;20662;-65
2022/08/31 10:23:34;;;;;;;3.40;1.70;;;25.20;99.90;;;;;;7360493;32;20217;-65
2022/08/31 10:27:42;;;;;;;4.53;1.90;;;25.50;99.90;;;;;;7364335;32;20216;-64
2022/08/31 10:31:48;;;;;;;8.63;1.80;;;25.50;99.90;;;;;;7350427;32;20241;-65
2022/08/31 10:35:56;;;;;;;4.20;1.70;;;25.00;99.90;;;;;;7360480;32;20555;-64
2022/08/31 10:40:05;;;;;;;6.18;2.05;;;25.30;99.90;;;;;;7355399;32;20185;-65
2022/08/31 10:44:35;;;;;;;4.45;2.00;;;24.80;99.90;;;;;;7365694;32;20188;-65
2022/08/31 10:48:39;;;;;;;5.60;2.30;;;24.90;99.90;;;;;;7363316;32;20118;-65
2022/08/31 10:53:14;;;;;;;3.65;1.80;;;23.80;99.90;;;;;;7357274;32;20244;-65
2022/08/31 10:57:50;;;;;;;6.93;2.20;;;24.70;99.90;;;;;;7338778;32;20322;-65
2022/08/31 11:02:20;;;;;;;5.18;2.35;;;24.60;99.90;;;;;;7351931;32;20129;-64
2022/08/31 11:06:43;;;;;;;3.30;2.17;;;24.00;99.90;;;;;;7351949;32;20186;-66
2022/08/31 11:10:55;;;;;;;5.55;2.58;;;24.10;99.90;;;;;;7357734;32;20508;-65
2022/08/31 11:15:44;;;;;;;3.65;2.35;;;23.90;99.90;;;;;;7354636;32;20154;-64
2022/08/31 11:20:10;;;;;;;3.30;2.08;;;23.80;99.90;;;;;;7328862;32;20562;-65
2022/08/31 11:24:21;;;;;;;5.53;2.20;;;23.80;99.90;;;;;;7356491;32;20777;-65
2022/08/31 11:28:44;;;;;;;3.53;2.03;;;23.90;99.90;;;;;;7356181;32;20190;-64
2022/08/31 11:33:06;;;;;;;4.85;2.20;;;24.20;99.90;;;;;;7350733;32;20202;-65
2022/08/31 11:37:08;;;;;;;9.38;2.75;;;24.20;99.90;;;;;;7356822;32;20247;-67
2022/08/31 11:41:30;;;;;;;6.62;3.00;;;24.40;99.90;;;;;;7354702;32;20604;-67
2022/08/31 11:45:36;;;;;;;4.85;2.33;;;24.50;99.90;;;;;;7353386;32;20156;-67
2022/08/31 11:49:50;;;;;;;2.97;1.98;;;24.30;99.90;;;;;;7353600;32;20580;-69
2022/08/31 11:53:54;;;;;;;5.78;2.65;;;24.60;99.90;;;;;;7359838;32;20179;-66
2022/08/31 11:58:04;;;;;;;5.25;3.30;;;25.00;99.90;;;;;;7365295;32;20226;-67
2022/08/31 12:02:18;;;;;;;9.70;2.83;;;24.30;99.90;;;;;;7361670;32;20305;-67
2022/08/31 12:06:23;;;;;;;4.80;2.37;;;24.10;99.90;;;;;;7361024;32;20129;-67
2022/08/31 12:10:49;;;;;;;4.30;2.20;;;23.90;99.90;;;;;;7364480;32;20562;-67
2022/08/31 12:15:11;;;;;;;5.12;2.08;;;24.00;99.90;;;;;;7359086;32;20107;-67
2022/08/31 12:24:28;;;;;;;4.35;2.20;;;23.70;99.90;;;;;;7366030;32;20127;-66
2022/08/31 12:29:10;;;;;;;3.40;2.30;;;23.80;99.90;;;;;;7326203;32;20241;-66
2022/08/31 12:33:16;;;;;;;3.80;2.25;;;23.80;99.90;;;;;;7359285;32;20273;-66
2022/08/31 12:37:25;;;;;;;3.35;2.00;;;24.10;99.90;;;;;;7358385;32;20240;-67
2022/08/31 12:41:27;;;;;;;7.55;2.72;;;23.90;99.90;;;;;;7352007;32;20204;-66
2022/08/31 12:46:02;;;;;;;7.97;2.53;;;23.70;99.90;;;;;;7357566;32;20119;-56
2022/08/31 12:50:19;;;;;;;3.53;2.47;;;24.10;99.90;;;;;;7354772;32;20108;-56
2022/08/31 12:54:55;;;;;;;4.65;2.47;;;24.20;99.90;;;;;;7355239;32;20123;-57
2022/08/31 12:59:00;;;;;;;7.62;2.35;;;23.80;99.90;;;;;;7354130;32;20230;-56
2022/08/31 13:03:25;;;;;;;6.15;2.67;;;24.10;99.90;;;;;;7364417;32;20116;-56
2022/08/31 13:07:40;;;;;;;8.80;2.60;;;24.30;99.90;;;;;;7367520;32;20224;-56
2022/08/31 13:11:42;;;;;;;3.75;1.87;;;23.90;99.90;;;;;;7357071;32;20107;-57
2022/08/31 13:16:06;;;;;;;6.30;2.75;;;23.60;99.90;;;;;;7352479;32;20103;-70
2022/08/31 13:20:08;;;;;;;3.80;1.92;;;23.40;99.90;;;;;;7354578;32;20212;-65
2022/08/31 13:24:11;;;;;;;3.72;2.75;;;23.60;99.90;;;;;;7354085;32;20125;-65
2022/08/31 13:28:13;;;;;;;6.78;2.30;;;24.10;99.90;;;;;;7351545;32;20129;-65
2022/08/31 13:32:31;;;;;;;5.28;2.47;;;24.10;99.90;;;;;;7364193;31;20436;-66
2022/08/31 13:36:57;;;;;;;4.97;2.20;;;24.00;99.90;;;;;;7361507;32;20287;-65
2022/08/31 13:40:59;;;;;;;6.43;2.30;;;24.00;99.90;;;;;;7359838;32;20200;-65
2022/08/31 13:45:06;;;;;;;4.55;2.50;;;23.90;99.90;;;;;;7358144;32;22061;-66
2022/08/31 13:49:31;;;;;;;4.57;2.33;;;23.60;99.90;;;;;;7355589;32;20111;-65
2022/08/31 13:53:44;;;;;;;10.32;7.87;;;23.50;99.90;;;;;;7353430;32;20220;-65
2022/08/31 13:58:21;;;;;;;5.15;2.28;;;23.40;99.90;;;;;;7359323;32;20135;-66
2022/08/31 14:02:27;;;;;;;5.53;2.12;;;23.20;99.90;;;;;;7351847;32;20155;-64
2022/08/31 14:06:38;;;;;;;6.60;2.42;;;23.20;99.90;;;;;;7359584;32;20561;-63
2022/08/31 14:10:45;;;;;;;5.57;2.62;;;23.20;99.90;;;;;;7354769;32;20122;-65
2022/08/31 14:14:48;;;;;;;4.45;2.10;;;23.50;99.90;;;;;;7353554;32;20261;-66
2022/08/31 14:18:54;;;;;;;2.65;1.90;;;23.90;99.90;;;;;;7352245;32;20507;-65
2022/08/31 14:22:56;;;;;;;4.35;2.00;;;24.00;99.90;;;;;;7358566;32;20193;-65
2022/08/31 14:26:59;;;;;;;3.00;2.20;;;24.10;99.90;;;;;;7363926;32;20137;-65
2022/08/31 14:31:11;;;;;;;5.22;1.95;;;24.40;99.90;;;;;;7355362;32;20237;-66
2022/08/31 14:35:13;;;;;;;4.22;2.00;;;24.70;99.90;;;;;;7358467;32;20561;-66
2022/08/31 14:39:15;;;;;;;5.97;2.03;;;25.20;99.90;;;;;;7354805;32;20170;-65
2022/08/31 14:43:17;;;;;;;5.82;2.22;;;25.40;99.90;;;;;;7352313;32;20327;-65
2022/08/31 14:47:20;;;;;;;5.32;2.25;;;25.30;99.90;;;;;;7352038;32;20217;-64
2022/08/31 14:51:22;;;;;;;6.78;2.12;;;24.70;99.90;;;;;;7352187;32;20174;-64
2022/08/31 14:55:27;;;;;;;4.28;2.17;;;24.30;99.90;;;;;;7352736;32;20187;-65
2022/08/31 14:59:29;;;;;;;2.28;2.00;;;24.20;99.90;;;;;;7354384;32;20318;-65
2022/08/31 15:03:33;;;;;;;8.25;2.20;;;24.00;99.90;;;;;;7358382;32;20465;-64
2022/08/31 15:07:39;;;;;;;4.87;1.95;;;23.90;99.90;;;;;;7353280;32;20196;-64
2022/08/31 15:11:41;;;;;;;3.58;1.98;;;23.80;99.90;;;;;;7353275;32;20178;-65
2022/08/31 15:15:43;;;;;;;3.03;2.00;;;23.70;99.90;;;;;;7360141;32;20130;-64
2022/08/31 15:19:50;;;;;;;2.55;2.10;;;23.50;99.90;;;;;;7351660;32;20130;-65
2022/08/31 15:23:52;;;;;;;2.80;1.90;;;23.50;99.90;;;;;;7350804;32;20218;-65
2022/08/31 15:27:53;;;;;;;5.57;1.80;;;23.40;99.90;;;;;;7353773;32;20786;-65
2022/08/31 15:31:57;;;;;;;4.97;2.05;;;23.40;99.90;;;;;;7357774;32;21068;-64
2022/08/31 15:36:06;;;;;;;4.30;2.17;;;23.40;99.90;;;;;;7357901;32;20129;-64
2022/08/31 15:40:08;;;;;;;3.37;2.00;;;23.50;99.90;;;;;;7363014;32;20140;-65
2022/08/31 15:44:11;;;;;;;4.20;2.00;;;23.60;99.90;;;;;;7359707;32;20127;-65
2022/08/31 15:52:35;;;;;;;4.53;1.87;;;23.70;99.90;;;;;;7352377;32;20129;-56
2022/08/31 15:56:38;;;;;;;3.37;1.70;;;23.80;99.90;;;;;;7361164;32;20209;-56
2022/08/31 16:00:40;;;;;;;3.20;2.00;;;23.80;99.90;;;;;;7352124;32;20818;-55
2022/08/31 16:04:42;;;;;;;5.28;1.70;;;23.70;99.90;;;;;;7357885;32;20154;-56
2022/08/31 16:08:46;;;;;;;3.70;2.00;;;23.60;99.90;;;;;;7367796;32;20330;-55
2022/08/31 16:12:50;;;;;;;2.47;1.80;;;23.50;99.90;;;;;;7363523;32;20243;-55
2022/08/31 16:16:52;;;;;;;3.15;1.80;;;23.60;99.90;;;;;;7357765;32;20168;-56
2022/08/31 16:20:54;;;;;;;3.45;1.75;;;23.50;99.90;;;;;;7353737;32;20125;-55
2022/08/31 16:24:56;;;;;;;2.50;1.60;;;23.30;99.90;;;;;;7359228;32;20722;-55
2022/08/31 16:29:00;;;;;;;2.62;1.70;;;23.10;99.90;;;;;;7358253;32;20132;-55
2022/08/31 16:33:02;;;;;;;4.05;1.70;;;23.10;99.90;;;;;;7362923;32;20091;-65
2022/08/31 16:37:07;;;;;;;3.90;1.60;;;23.20;99.90;;;;;;7354218;32;20147;-65
2022/08/31 16:41:10;;;;;;;4.12;2.10;;;23.20;99.90;;;;;;7360192;32;20710;-64
2022/08/31 16:45:12;;;;;;;3.53;1.70;;;23.20;99.90;;;;;;7370915;32;20175;-64
2022/08/31 16:49:32;;;;;;;3.40;1.90;;;23.10;99.90;;;;;;7360126;32;20119;-64
2022/08/31 16:53:34;;;;;;;7.05;4.90;;;23.00;99.90;;;;;;7369637;32;20112;-64
2022/08/31 16:57:36;;;;;;;6.10;1.60;;;23.00;99.90;;;;;;7360779;32;20103;-64
2022/08/31 17:01:42;;;;;;;3.50;1.58;;;23.10;99.90;;;;;;7353026;32;20176;-64
2022/08/31 17:05:45;;;;;;;4.53;1.75;;;22.80;99.90;;;;;;7352517;32;20589;-65
2022/08/31 17:09:47;;;;;;;3.70;1.58;;;22.70;99.90;;;;;;7352110;32;20273;-64
2022/08/31 17:13:56;;;;;;;8.05;1.67;;;22.60;99.90;;;;;;7360293;32;20127;-64
2022/08/31 17:17:58;;;;;;;3.47;1.42;;;22.50;99.90;;;;;;7364448;32;20111;-64
2022/08/31 17:22:02;;;;;;;2.20;1.70;;;22.50;99.90;;;;;;7361496;32;20221;-64
2022/08/31 17:26:05;;;;;;;3.37;1.52;;;22.60;99.90;;;;;;7356942;32;20261;-64
2022/08/31 17:30:07;;;;;;;3.40;1.40;;;22.40;99.90;;;;;;7364464;32;20315;-65
2022/08/31 17:34:22;;;;;;;2.03;1.15;;;22.30;99.90;;;;;;7356311;32;20175;-64
2022/08/31 17:38:24;;;;;;;5.90;1.40;;;22.20;99.90;;;;;;7358889;32;20730;-64
2022/08/31 17:42:27;;;;;;;2.28;1.05;;;22.20;99.90;;;;;;7368238;32;20238;-63
2022/08/31 17:46:29;;;;;;;5.93;1.40;;;22.10;99.90;;;;;;7366070;32;20137;-64
2022/08/31 17:50:31;;;;;;;3.87;1.10;;;22.00;99.90;;;;;;7361450;32;20232;-65
2022/08/31 17:54:38;;;;;;;3.05;1.20;;;22.00;99.90;;;;;;7355005;32;20198;-63
2022/08/31 17:58:39;;;;;;;2.67;1.37;;;21.90;99.90;;;;;;7364438;32;20186;-64
2022/08/31 18:02:42;;;;;;;3.75;1.12;;;21.80;99.90;;;;;;7350853;32;20114;-64
2022/08/31 18:06:45;;;;;;;4.25;1.33;;;21.80;99.90;;;;;;7358616;32;20111;-64
2022/08/31 18:10:51;;;;;;;1.87;0.70;;;21.70;99.90;;;;;;7357362;32;20213;-63
2022/08/31 18:14:52;;;;;;;7.07;1.00;;;21.70;99.90;;;;;;7356120;32;20131;-63
2022/08/31 18:18:54;;;;;;;5.47;1.10;;;21.70;99.90;;;;;;7355132;32;20184;-63
2022/08/31 18:22:56;;;;;;;4.55;1.98;;;21.50;99.90;;;;;;7354277;32;20110;-71
2022/08/31 18:27:01;;;;;;;2.03;1.00;;;21.50;99.90;;;;;;7360278;32;20215;-63
2022/08/31 18:31:06;;;;;;;3.87;1.33;;;21.40;99.90;;;;;;7354232;32;20148;-63
2022/08/31 18:35:12;;;;;;;2.28;1.15;;;21.30;99.90;;;;;;7349454;32;20872;-63
2022/08/31 18:39:20;;;;;;;2.35;1.00;;;21.10;99.90;;;;;;7355005;32;20193;-59
2022/08/31 18:48:02;;;;;;;3.85;1.30;;;21.00;99.90;;;;;;7350023;32;20065;-64
2022/08/31 18:52:26;;;;;;;3.75;0.90;;;21.00;99.90;;;;;;7353431;32;20175;-62
2022/08/31 18:56:28;;;;;;;9.27;1.20;;;20.90;99.90;;;;;;7349576;32;20189;-62
2022/08/31 19:00:31;;;;;;;2.62;1.10;;;20.80;99.90;;;;;;7351148;32;20690;-62
2022/08/31 19:04:34;;;;;;;2.78;0.95;;;20.70;99.90;;;;;;7351662;32;20111;-61
2022/08/31 19:08:36;;;;;;;3.92;0.90;;;20.60;99.90;;;;;;7350323;32;20288;-61
2022/08/31 19:12:38;;;;;;;1.60;0.70;;;20.50;99.90;;;;;;7350059;32;20240;-62
2022/08/31 19:16:41;;;;;;;3.35;1.30;;;20.40;99.90;;;;;;7354484;32;20287;-63
2022/08/31 19:20:43;;;;;;;2.80;1.08;;;20.40;99.90;;;;;;7354859;32;20300;-64
2022/08/31 19:24:45;;;;;;;7.53;3.08;;;20.30;99.90;;;;;;7353058;32;20139;-60
2022/08/31 19:28:48;;;;;;;1.98;0.90;;;20.30;99.90;;;;;;7351335;32;20232;-63
2022/08/31 19:32:50;;;;;;;2.67;0.70;;;20.20;99.90;;;;;;7349327;32;20129;-64
2022/08/31 19:36:52;;;;;;;1.90;0.98;;;20.20;99.90;;;;;;7350810;32;20115;-64
2022/08/31 19:40:58;;;;;;;2.50;0.73;;;20.10;99.90;;;;;;7350538;32;20125;-65
2022/08/31 19:44:59;;;;;;;4.18;0.98;;;20.10;99.90;;;;;;7352211;32;20108;-63
2022/08/31 19:49:22;;;;;;;4.20;0.80;;;20.00;99.90;;;;;;7353100;32;20229;-64
2022/08/31 19:53:24;;;;;;;3.47;0.82;;;20.00;99.90;;;;;;7347186;32;20127;-64
2022/08/31 19:57:26;;;;;;;6.47;0.93;;;19.90;99.90;;;;;;7356756;32;20392;-62
2022/08/31 20:01:32;;;;;;;3.47;1.02;;;19.90;99.90;;;;;;7354480;32;20217;-64
2022/08/31 20:05:40;;;;;;;5.35;1.00;;;19.90;99.90;;;;;;7360508;32;20221;-61
2022/08/31 20:09:42;;;;;;;2.65;0.70;;;19.80;99.90;;;;;;7348300;32;20108;-63
2022/08/31 20:13:44;;;;;;;3.20;1.00;;;19.80;99.90;;;;;;7352866;32;20168;-64
2022/08/31 20:17:46;;;;;;;6.28;0.93;;;19.60;99.90;;;;;;7354022;32;20171;-61
2022/08/31 20:21:51;;;;;;;2.30;0.85;;;19.60;99.90;;;;;;7360737;32;20231;-61
2022/08/31 20:25:53;;;;;;;3.25;0.80;;;19.50;99.90;;;;;;7363529;32;20099;-61
2022/08/31 20:29:55;;;;;;;5.90;0.95;;;19.50;99.90;;;;;;7352981;32;20125;-61
2022/08/31 20:33:58;;;;;;;2.67;0.80;;;19.50;99.90;;;;;;7353449;32;20201;-61
2022/08/31 20:38:00;;;;;;;2.08;0.85;;;19.50;99.90;;;;;;7358324;32;20166;-61
2022/08/31 20:42:03;;;;;;;3.17;1.00;;;19.50;99.90;;;;;;7355058;32;20107;-61
2022/08/31 20:46:07;;;;;;;1.62;0.80;;;19.40;99.90;;;;;;7362210;32;20173;-61
2022/08/31 20:50:10;;;;;;;2.62;0.90;;;19.40;99.90;;;;;;7352412;32;20194;-62
2022/08/31 20:54:12;;;;;;;1.48;0.90;;;19.40;99.90;;;;;;7358879;32;20194;-62
2022/08/31 20:58:14;;;;;;;3.50;0.95;;;19.20;99.90;;;;;;7364021;32;20102;-62
2022/08/31 21:02:18;;;;;;;3.92;0.80;;;19.30;99.90;;;;;;7361151;32;20493;-62
2022/08/31 21:06:24;;;;;;;4.12;1.00;;;19.10;99.90;;;;;;7358131;32;20176;-63
2022/08/31 21:10:30;;;;;;;7.20;1.00;;;19.10;99.90;;;;;;7350627;32;20115;-61
2022/08/31 21:14:39;;;;;;;3.65;1.00;;;19.00;99.90;;;;;;7352383;32;20245;-62
2022/08/31 21:18:41;;;;;;;1.40;0.80;;;18.90;99.90;;;;;;7356587;32;20738;-62
2022/08/31 21:22:43;;;;;;;3.47;1.40;;;18.90;99.90;;;;;;7354948;32;20207;-59
2022/08/31 21:26:46;;;;;;;3.22;0.95;;;18.80;99.90;;;;;;7355442;32;20111;-59
2022/08/31 21:30:48;;;;;;;3.08;1.10;;;18.70;99.90;;;;;;7356579;32;20180;-59
2022/08/31 21:34:55;;;;;;;3.90;0.95;;;18.60;99.90;;;;;;7355609;32;20112;-59
2022/08/31 21:38:56;;;;;;;4.30;0.98;;;18.60;99.90;;;;;;7360150;32;20125;-59
2022/08/31 21:43:00;;;;;;;3.10;0.80;;;18.60;99.90;;;;;;7355985;32;20412;-59
2022/08/31 21:47:03;;;;;;;1.70;0.70;;;18.50;99.90;;;;;;7356410;32;20103;-59
2022/08/31 21:51:27;;;;;;;5.45;0.90;;;18.50;99.90;;;;;;7356803;32;20253;-59
2022/08/31 21:55:28;;;;;;;3.28;1.00;;;18.50;99.90;;;;;;7361751;32;20194;-59
2022/08/31 21:59:34;;;;;;;8.40;1.10;;;18.50;99.90;;;;;;7353711;32;20102;-59